createdAt,value
2019-03-01T00:07:23.861Z,6.60
2019-03-01T00:13:07.089Z,7.07
2019-03-01T00:19:04.277Z,7.63
2019-03-01T00:30:13.406Z,8.23
2019-03-01T00:35:43.529Z,7.10
2019-03-01T00:41:25.434Z,6.53
2019-03-01T00:46:30.710Z,7.13
2019-03-01T00:51:41.500Z,6.60
2019-03-01T00:57:06.084Z,6.90
2019-03-01T01:02:11.340Z,7.10
2019-03-01T01:07:35.733Z,8.07
2019-03-01T01:18:17.161Z,6.47
2019-03-01T01:23:43.071Z,6.83
2019-03-01T01:28:48.335Z,7.47
2019-03-01T01:33:53.555Z,6.30
2019-03-01T01:38:58.907Z,6.20
2019-03-01T01:44:16.106Z,6.70
2019-03-01T01:49:21.379Z,5.83
2019-03-01T02:00:04.923Z,5.63
2019-03-01T02:05:23.407Z,5.37
2019-03-01T02:10:40.494Z,5.80
2019-03-01T02:15:57.444Z,5.47
2019-03-01T02:21:02.682Z,5.97
2019-03-01T02:26:28.660Z,5.93
2019-03-01T02:31:46.023Z,5.90
2019-03-01T02:36:51.413Z,5.77
2019-03-01T02:41:56.618Z,5.03
2019-03-01T02:47:13.494Z,4.43
2019-03-01T02:52:37.725Z,4.80
2019-03-01T02:57:42.994Z,5.17
2019-03-01T03:02:48.294Z,4.67
2019-03-01T03:08:08.778Z,5.00
2019-03-01T03:13:32.945Z,4.63
2019-03-01T03:18:57.475Z,4.50
2019-03-01T03:24:02.673Z,4.87
2019-03-01T03:29:13.528Z,4.07
2019-03-01T03:34:18.811Z,3.90
2019-03-01T03:39:35.879Z,3.40
2019-03-01T03:44:41.097Z,3.60
2019-03-01T04:00:57.572Z,3.77
2019-03-01T04:06:08.184Z,3.30
2019-03-01T04:11:19.622Z,3.17
2019-03-01T04:16:24.833Z,3.23
2019-03-01T04:21:41.323Z,3.30
2019-03-01T04:26:46.612Z,3.60
2019-03-01T04:31:52.266Z,3.00
2019-03-01T04:36:57.453Z,3.17
2019-03-01T04:42:02.640Z,3.13
2019-03-01T04:47:07.907Z,3.40
2019-03-01T04:52:46.754Z,2.80
2019-03-01T05:13:43.244Z,2.80
2019-03-01T05:18:48.580Z,2.90
2019-03-01T05:29:29.908Z,2.77
2019-03-01T05:34:46.350Z,3.30
2019-03-01T05:45:28.263Z,3.17
2019-03-01T05:50:33.538Z,3.27
2019-03-01T05:55:38.781Z,3.60
2019-03-01T06:06:36.613Z,3.33
2019-03-01T06:12:19.853Z,3.10
2019-03-01T06:17:36.191Z,3.33
2019-03-01T06:23:12.936Z,3.70
2019-03-01T06:28:39.726Z,3.57
2019-03-01T06:34:23.029Z,4.43
2019-03-01T06:46:13.881Z,3.97
2019-03-01T06:51:28.959Z,4.20
2019-03-01T06:56:38.741Z,3.90
2019-03-01T07:02:08.046Z,3.60
2019-03-01T07:12:55.643Z,5.07
2019-03-01T07:18:12.316Z,3.87
2019-03-01T07:23:17.555Z,4.20
2019-03-01T07:28:22.737Z,11.97
2019-03-01T07:33:47.017Z,5.90
2019-03-01T07:38:52.240Z,5.63
2019-03-01T07:43:57.522Z,7.77
2019-03-01T07:49:21.633Z,8.57
2019-03-01T07:54:26.816Z,4.63
2019-03-01T07:59:38.027Z,3.80
2019-03-01T08:04:44.179Z,4.10
2019-03-01T08:15:25.212Z,3.90
2019-03-01T08:20:42.148Z,3.70
2019-03-01T08:25:59.886Z,3.80
2019-03-01T08:31:17.606Z,4.40
2019-03-01T08:36:23.777Z,4.23
2019-03-01T08:41:29.034Z,4.07
2019-03-01T08:46:53.488Z,4.53
2019-03-01T08:52:01.450Z,4.87
2019-03-01T08:57:27.534Z,5.93
2019-03-01T09:02:59.348Z,5.57
2019-03-01T09:08:04.625Z,6.63
2019-03-01T09:13:36.129Z,7.23
2019-03-01T09:19:03.008Z,8.57
2019-03-01T09:24:19.492Z,9.80
2019-03-01T09:29:43.698Z,10.50
2019-03-01T09:35:19.731Z,12.57
2019-03-01T09:40:44.068Z,11.23
2019-03-01T09:45:54.962Z,12.17
2019-03-01T09:56:49.315Z,13.40
2019-03-01T10:02:13.967Z,12.10
2019-03-01T10:07:19.233Z,13.43
2019-03-01T10:17:40.859Z,15.80
2019-03-01T10:22:57.264Z,18.97
2019-03-01T10:28:02.491Z,22.77
2019-03-01T10:33:07.709Z,23.37
2019-03-01T10:43:29.888Z,32.73
2019-03-01T10:48:35.082Z,42.10
2019-03-01T10:58:58.431Z,44.73
2019-03-01T11:04:13.495Z,43.93
2019-03-01T11:09:37.747Z,45.30
2019-03-01T11:14:44.594Z,44.00
2019-03-01T11:25:18.202Z,47.10
2019-03-01T11:36:01.707Z,50.40
2019-03-01T11:46:23.271Z,49.67
2019-03-01T11:51:40.704Z,57.77
2019-03-01T11:56:46.898Z,59.27
2019-03-01T12:02:11.174Z,57.27
2019-03-01T12:07:16.362Z,56.53
2019-03-01T12:23:08.889Z,46.73
2019-03-01T12:28:33.267Z,42.77
2019-03-01T12:33:44.482Z,47.07
2019-03-01T12:38:49.707Z,39.23
2019-03-01T12:43:54.926Z,42.20
2019-03-01T12:49:00.110Z,38.60
2019-03-01T12:59:46.572Z,38.03
2019-03-01T13:10:23.607Z,34.37
2019-03-01T13:15:28.812Z,36.30
2019-03-01T13:20:54.645Z,35.97
2019-03-01T13:26:02.900Z,29.00
2019-03-01T13:31:25.934Z,29.03
2019-03-01T13:36:50.266Z,28.83
2019-03-01T13:42:10.286Z,26.30
2019-03-01T13:47:33.388Z,25.97
2019-03-01T13:52:58.419Z,26.93
2019-03-01T13:58:26.722Z,25.60
2019-03-01T14:03:38.933Z,27.10
2019-03-01T14:09:03.388Z,27.30
2019-03-01T14:14:26.542Z,26.77
2019-03-01T14:19:28.770Z,30.67
2019-03-01T14:24:34.024Z,29.23
2019-03-01T14:29:39.488Z,32.33
2019-03-01T14:34:47.783Z,34.03
2019-03-01T14:39:58.960Z,33.50
2019-03-01T14:50:49.095Z,34.20
2019-03-01T14:56:55.965Z,32.47
2019-03-01T15:02:33.683Z,35.17
2019-03-01T15:07:57.922Z,34.93
2019-03-01T15:13:22.286Z,33.63
2019-03-01T15:18:28.981Z,32.63
2019-03-01T15:24:02.820Z,28.93
2019-03-01T15:29:08.138Z,27.70
2019-03-01T15:34:13.330Z,28.80
2019-03-01T15:45:13.891Z,27.67
2019-03-01T15:50:19.127Z,22.93
2019-03-01T15:55:36.256Z,25.20
2019-03-01T16:06:38.494Z,21.63
2019-03-01T16:11:45.234Z,22.00
2019-03-01T16:16:50.450Z,19.80
2019-03-01T16:21:55.721Z,19.50
2019-03-01T16:27:00.942Z,20.83
2019-03-01T16:37:50.922Z,17.97
2019-03-01T16:42:56.118Z,16.93
2019-03-01T16:48:01.348Z,16.67
2019-03-01T16:53:08.217Z,17.10
2019-03-01T16:58:32.458Z,18.10
2019-03-01T17:03:37.755Z,17.43
2019-03-01T17:14:18.474Z,16.33
2019-03-01T17:19:26.724Z,12.90
2019-03-01T17:24:35.940Z,10.53
2019-03-01T17:29:41.161Z,9.80
2019-03-01T17:35:01.135Z,10.03
2019-03-01T17:40:18.457Z,10.87
2019-03-01T17:45:23.990Z,12.90
2019-03-01T17:50:29.248Z,14.33
2019-03-01T17:55:37.548Z,15.17
2019-03-01T18:00:58.738Z,19.40
2019-03-01T18:06:44.874Z,22.90
2019-03-01T18:12:09.719Z,24.63
2019-03-01T18:22:31.491Z,21.60
2019-03-01T18:27:36.704Z,19.87
2019-03-01T18:32:53.357Z,13.83
2019-03-01T18:37:58.575Z,13.00
2019-03-01T18:43:15.138Z,12.73
2019-03-01T19:05:04.493Z,15.37
2019-03-01T19:10:09.929Z,16.43
2019-03-01T19:21:13.937Z,19.80
2019-03-01T19:26:23.898Z,20.07
2019-03-01T19:31:29.082Z,19.60
2019-03-01T19:36:45.514Z,19.70
2019-03-01T19:47:27.271Z,19.83
2019-03-01T19:52:58.784Z,20.97
2019-03-01T19:58:04.118Z,23.50
2019-03-01T20:03:20.861Z,21.90
2019-03-01T20:08:37.272Z,22.67
2019-03-01T20:13:54.633Z,22.50
2019-03-01T20:18:59.958Z,22.43
2019-03-01T20:24:24.367Z,22.33
2019-03-01T20:29:41.430Z,22.67
2019-03-01T20:34:47.329Z,22.30
2019-03-01T20:39:52.966Z,22.67
2019-03-01T20:44:58.172Z,25.40
2019-03-01T20:50:03.592Z,23.13
2019-03-01T20:55:15.850Z,23.70
2019-03-01T21:00:31.914Z,23.90
2019-03-01T21:11:13.354Z,24.03
2019-03-01T21:16:19.040Z,26.27
2019-03-01T21:21:43.559Z,26.77
2019-03-01T21:26:51.229Z,26.33
2019-03-01T21:32:15.483Z,25.50
2019-03-01T21:37:31.387Z,28.20
2019-03-01T21:42:57.210Z,25.27
2019-03-01T21:48:22.046Z,27.73
2019-03-01T22:04:34.400Z,28.13
2019-03-01T22:15:06.884Z,23.97
2019-03-01T22:20:31.483Z,26.60
2019-03-01T22:25:48.491Z,24.23
2019-03-01T22:30:56.449Z,24.73
2019-03-01T22:36:18.223Z,23.63
2019-03-01T22:41:24.571Z,22.80
2019-03-01T22:46:29.979Z,20.70
2019-03-01T22:51:35.757Z,19.97
2019-03-01T22:56:48.557Z,17.73
2019-03-01T23:02:43.713Z,16.30
2019-03-01T23:08:14.890Z,15.23
2019-03-01T23:18:37.624Z,15.80
2019-03-01T23:24:00.873Z,15.93
2019-03-01T23:29:06.623Z,16.13
2019-03-01T23:34:11.939Z,17.20
2019-03-01T23:39:28.836Z,17.87
2019-03-01T23:44:46.002Z,17.13
2019-03-01T23:49:51.280Z,17.93
2019-03-01T23:55:18.698Z,19.93
